createdAt,value
2024-03-01T00:03:35.414Z,92676.19
2024-03-01T00:08:38.640Z,92676.03
2024-03-01T00:13:43.269Z,92668.09
2024-03-01T00:18:46.614Z,92676.59
2024-03-01T00:23:50.441Z,92663.06
2024-03-01T00:28:54.466Z,92660.47
2024-03-01T00:33:58.095Z,92659.69
2024-03-01T00:39:01.329Z,92651.59
2024-03-01T00:44:04.921Z,92651.31
2024-03-01T00:49:08.353Z,92639.66
2024-03-01T00:54:11.763Z,92638.91
2024-03-01T00:59:15.201Z,92626.19
2024-03-01T01:04:19.111Z,92623.63
2024-03-01T01:09:23.206Z,92626.91
2024-03-01T01:14:27.711Z,92629.28
2024-03-01T01:19:31.059Z,92618.50
2024-03-01T01:24:35.252Z,92606.13
2024-03-01T01:29:38.399Z,92625.88
2024-03-01T01:34:42.160Z,92630.47
2024-03-01T01:39:45.876Z,92627.81
2024-03-01T01:44:49.841Z,92613.59
2024-03-01T01:49:54.507Z,92608.66
2024-03-01T01:54:57.956Z,92611.09
2024-03-01T02:00:02.035Z,92618.25
2024-03-01T02:05:16.365Z,92610.66
2024-03-01T02:10:19.880Z,92607.66
2024-03-01T02:15:25.570Z,92612.47
2024-03-01T02:20:31.199Z,92610.25
2024-03-01T02:25:34.625Z,92608.41
2024-03-01T02:30:38.005Z,92606.53
2024-03-01T02:35:41.172Z,92608.81
2024-03-01T02:40:45.429Z,92602.53
2024-03-01T02:45:49.437Z,92602.88
2024-03-01T02:50:53.260Z,92608.19
2024-03-01T02:55:56.500Z,92596.50
2024-03-01T03:00:59.863Z,92601.47
2024-03-01T03:06:04.232Z,92589.34
2024-03-01T03:11:07.520Z,92595.53
2024-03-01T03:16:11.470Z,92584.94
2024-03-01T03:21:14.920Z,92595.78
2024-03-01T03:26:18.151Z,92599.59
2024-03-01T03:31:23.485Z,92595.25
2024-03-01T03:36:27.232Z,92587.44
2024-03-01T03:41:30.625Z,92581.47
2024-03-01T03:46:33.941Z,92576.31
2024-03-01T03:51:39.024Z,92578.16
2024-03-01T03:56:42.489Z,92573.38
2024-03-01T04:01:45.936Z,92581.41
2024-03-01T04:06:49.574Z,92582.44
2024-03-01T04:11:53.089Z,92606.56
2024-03-01T04:16:57.078Z,92604.06
2024-03-01T04:22:00.308Z,92611.72
2024-03-01T04:27:05.785Z,92612.28
2024-03-01T04:32:10.124Z,92609.41
2024-03-01T04:37:16.490Z,92601.84
2024-03-01T04:42:19.917Z,92618.72
2024-03-01T04:47:24.490Z,92611.81
2024-03-01T04:52:29.768Z,92619.84
2024-03-01T04:57:33.785Z,92630.47
2024-03-01T05:02:37.791Z,92633.31
2024-03-01T05:07:41.079Z,92629.50
2024-03-01T05:12:44.945Z,92621.75
2024-03-01T05:17:49.048Z,92617.13
2024-03-01T05:22:52.550Z,92622.53
2024-03-01T05:27:56.090Z,92640.53
2024-03-01T05:32:59.660Z,92644.13
2024-03-01T05:38:03.238Z,92643.69
2024-03-01T05:43:06.630Z,92665.16
2024-03-01T05:48:13.644Z,92665.91
2024-03-01T05:53:19.378Z,92650.97
2024-03-01T05:58:25.933Z,92636.22
2024-03-01T06:03:29.559Z,92645.22
2024-03-01T06:08:33.369Z,92660.09
2024-03-01T06:13:37.319Z,92656.59
2024-03-01T06:18:40.885Z,92668.59
2024-03-01T06:23:44.158Z,92677.53
2024-03-01T06:28:47.784Z,92697.59
2024-03-01T06:33:51.722Z,92683.81
2024-03-01T06:38:55.924Z,92679.63
2024-03-01T06:43:59.197Z,92677.72
2024-03-01T06:49:03.400Z,92669.13
2024-03-01T06:54:07.140Z,92665.38
2024-03-01T06:59:11.075Z,92655.31
2024-03-01T07:04:14.638Z,92659.25
2024-03-01T07:09:18.152Z,92659.63
2024-03-01T07:14:21.426Z,92671.41
2024-03-01T07:19:24.792Z,92711.06
2024-03-01T07:24:28.067Z,92690.13
2024-03-01T07:29:31.424Z,92684.66
2024-03-01T07:34:35.670Z,92686.34
2024-03-01T07:39:39.318Z,92687.50
2024-03-01T07:44:43.184Z,92678.09
2024-03-01T07:49:50.717Z,92683.09
2024-03-01T07:54:54.215Z,92684.91
2024-03-01T07:59:57.788Z,92695.56
2024-03-01T08:05:01.924Z,92707.97
2024-03-01T08:10:10.042Z,92684.56
2024-03-01T08:15:26.619Z,92674.91
2024-03-01T08:20:54.702Z,92689.84
2024-03-01T08:25:59.686Z,92701.44
2024-03-01T08:31:06.315Z,92696.53
2024-03-01T08:36:11.369Z,92701.63
2024-03-01T08:41:15.713Z,92713.28
2024-03-01T08:46:39.375Z,92721.69
2024-03-01T08:51:43.520Z,92734.50
2024-03-01T08:57:00.736Z,92745.38
2024-03-01T09:02:05.147Z,92747.34
2024-03-01T09:07:17.889Z,92758.75
2024-03-01T09:12:27.502Z,92766.13
2024-03-01T09:17:35.545Z,92783.94
2024-03-01T09:22:40.958Z,92780.56
2024-03-01T09:27:47.227Z,92769.63
2024-03-01T09:32:50.643Z,92772.59
2024-03-01T09:37:54.820Z,92768.63
2024-03-01T09:43:07.329Z,92777.88
2024-03-01T09:48:46.594Z,92780.78
2024-03-01T09:54:14.592Z,92783.59
2024-03-01T09:59:38.679Z,92783.44
2024-03-01T10:04:54.175Z,92795.69
2024-03-01T10:10:15.963Z,92801.66
2024-03-01T10:15:37.274Z,92791.63
2024-03-01T10:20:41.199Z,92797.00
2024-03-01T10:26:14.344Z,92799.16
2024-03-01T10:31:40.080Z,92802.03
2024-03-01T10:36:47.060Z,92798.53
2024-03-01T10:42:12.452Z,92805.06
2024-03-01T10:47:23.176Z,92798.16
2024-03-01T10:52:35.112Z,92791.00
2024-03-01T10:57:50.334Z,92792.84
2024-03-01T11:03:00.087Z,92784.22
2024-03-01T11:08:26.086Z,92780.72
2024-03-01T11:13:35.289Z,92772.88
2024-03-01T11:18:43.490Z,92760.56
2024-03-01T11:24:10.586Z,92762.00
2024-03-01T11:29:39.781Z,92755.00
2024-03-01T11:35:01.365Z,92750.53
2024-03-01T11:40:08.001Z,92770.69
2024-03-01T11:45:41.429Z,92784.84
2024-03-01T11:50:49.970Z,92786.47
2024-03-01T11:56:16.482Z,92770.00
2024-03-01T12:01:58.982Z,92762.63
2024-03-01T12:07:17.255Z,92756.19
2024-03-01T12:12:44.818Z,92741.50
2024-03-01T12:18:08.865Z,92768.00
2024-03-01T12:23:13.690Z,92783.22
2024-03-01T12:28:53.020Z,92789.50
2024-03-01T12:34:42.378Z,92789.28
2024-03-01T12:39:57.085Z,92779.16
2024-03-01T12:45:19.077Z,92772.47
2024-03-01T12:50:26.908Z,92785.72
2024-03-01T12:55:41.148Z,92786.69
2024-03-01T13:01:31.278Z,92773.56
2024-03-01T13:06:37.411Z,92776.91
2024-03-01T13:11:41.184Z,92767.22
2024-03-01T13:16:44.911Z,92773.44
2024-03-01T13:22:06.351Z,92772.47
2024-03-01T13:27:35.831Z,92772.91
2024-03-01T13:38:36.366Z,92785.81
2024-03-01T13:43:47.391Z,92780.41
2024-03-01T13:48:52.085Z,92770.53
2024-03-01T13:53:57.234Z,92779.56
2024-03-01T13:59:01.528Z,92786.91
2024-03-01T14:04:06.577Z,92802.53
2024-03-01T14:09:15.584Z,92802.13
2024-03-01T14:14:20.334Z,92804.13
2024-03-01T14:19:24.562Z,92811.38
2024-03-01T14:24:28.295Z,92820.25
2024-03-01T14:29:33.382Z,92820.22
2024-03-01T14:34:41.423Z,92826.84
2024-03-01T14:39:46.542Z,92811.34
2024-03-01T14:44:55.178Z,92819.88
2024-03-01T14:50:05.406Z,92794.59
2024-03-01T14:55:09.847Z,92822.75
2024-03-01T15:00:23.111Z,92823.28
2024-03-01T15:05:29.388Z,92798.69
2024-03-01T15:10:33.681Z,92798.19
2024-03-01T15:15:48.446Z,92795.91
2024-03-01T15:20:53.896Z,92785.00
2024-03-01T15:26:07.567Z,92795.91
2024-03-01T15:31:12.168Z,92793.16
2024-03-01T15:36:18.172Z,92797.56
2024-03-01T15:41:21.962Z,92804.88
2024-03-01T15:46:28.263Z,92826.75
2024-03-01T15:51:32.371Z,92799.91
2024-03-01T15:56:36.239Z,92842.34
2024-03-01T16:01:40.071Z,92842.91
2024-03-01T16:06:44.612Z,92839.50
2024-03-01T16:11:49.461Z,92858.81
2024-03-01T16:16:53.911Z,92852.81
2024-03-01T16:21:57.466Z,92831.06
2024-03-01T16:27:04.432Z,92867.03
2024-03-01T16:32:21.226Z,92864.75
2024-03-01T16:37:27.169Z,92856.19
2024-03-01T16:42:44.014Z,92862.41
2024-03-01T16:47:49.170Z,92865.53
2024-03-01T16:52:54.455Z,92868.25
2024-03-01T16:57:59.014Z,92865.16
2024-03-01T17:03:04.145Z,92867.06
2024-03-01T17:08:14.817Z,92865.50
2024-03-01T17:13:26.523Z,92874.03
2024-03-01T17:18:31.088Z,92870.56
2024-03-01T17:23:35.641Z,92880.22
2024-03-01T17:28:40.149Z,92881.38
2024-03-01T17:33:44.677Z,92888.00
2024-03-01T17:38:48.445Z,92896.53
2024-03-01T17:43:52.128Z,92889.94
2024-03-01T17:48:57.984Z,92897.75
2024-03-01T17:54:04.123Z,92905.97
2024-03-01T17:59:07.852Z,92907.13
2024-03-01T18:04:11.986Z,92900.91
2024-03-01T18:09:17.189Z,92910.63
2024-03-01T18:14:20.656Z,92918.81
2024-03-01T18:19:24.594Z,92925.41
2024-03-01T18:24:29.181Z,92916.84
2024-03-01T18:29:33.192Z,92923.84
2024-03-01T18:34:41.737Z,92928.16
2024-03-01T18:39:45.456Z,92918.38
2024-03-01T18:44:48.963Z,92926.53
2024-03-01T18:49:52.339Z,92921.44
2024-03-01T18:54:56.563Z,92932.69
2024-03-01T19:00:00.386Z,92943.19
2024-03-01T19:05:05.939Z,92944.31
2024-03-01T19:10:09.515Z,92950.81
2024-03-01T19:15:13.373Z,92961.25
2024-03-01T19:20:17.108Z,92959.19
2024-03-01T19:25:21.626Z,92964.47
2024-03-01T19:30:25.810Z,92958.50
2024-03-01T19:35:31.842Z,92941.78
2024-03-01T19:40:36.451Z,92938.03
2024-03-01T19:45:39.900Z,92924.22
2024-03-01T19:50:43.692Z,92921.84
2024-03-01T19:55:47.137Z,92929.75
2024-03-01T20:00:51.346Z,92924.03
2024-03-01T20:05:55.093Z,92936.97
2024-03-01T20:10:58.263Z,92925.84
2024-03-01T20:16:02.740Z,92930.03
2024-03-01T20:21:09.381Z,92915.28
2024-03-01T20:26:12.641Z,92904.78
2024-03-01T20:31:17.592Z,92908.97
2024-03-01T20:36:22.029Z,92901.19
2024-03-01T20:41:25.319Z,92906.56
2024-03-01T20:46:32.131Z,92907.19
2024-03-01T20:51:37.611Z,92912.47
2024-03-01T20:56:41.304Z,92904.25
2024-03-01T21:01:45.045Z,92913.50
2024-03-01T21:06:49.875Z,92898.69
2024-03-01T21:11:53.446Z,92906.19
2024-03-01T21:16:57.057Z,92906.06
2024-03-01T21:27:07.380Z,92906.03
2024-03-01T21:32:19.364Z,92909.31
2024-03-01T21:37:29.980Z,92904.34
2024-03-01T21:42:34.196Z,92900.19
2024-03-01T21:47:38.247Z,92892.72
2024-03-01T21:52:42.098Z,92894.88
2024-03-01T21:57:46.386Z,92900.66
2024-03-01T22:02:49.641Z,92901.84
2024-03-01T22:08:06.770Z,92885.28
2024-03-01T22:13:17.537Z,92907.00
2024-03-01T22:18:21.630Z,92924.38
2024-03-01T22:23:25.725Z,92929.13
2024-03-01T22:28:29.153Z,92935.75
2024-03-01T22:33:32.617Z,92939.13
2024-03-01T22:38:39.004Z,92924.75
2024-03-01T22:43:43.658Z,92919.25
2024-03-01T22:48:47.676Z,92934.06
2024-03-01T22:53:56.376Z,92943.63
2024-03-01T22:59:00.654Z,92932.59
2024-03-01T23:04:04.870Z,92923.31
2024-03-01T23:09:15.244Z,92917.44
2024-03-01T23:14:42.136Z,92906.66
2024-03-01T23:19:46.671Z,92902.84
2024-03-01T23:24:50.497Z,92906.00
2024-03-01T23:29:54.307Z,92909.78
2024-03-01T23:35:00.139Z,92912.94
2024-03-01T23:40:08.391Z,92911.56
2024-03-01T23:45:12.558Z,92898.69
2024-03-01T23:50:18.013Z,92905.56
2024-03-01T23:55:25.562Z,92920.69
